createdAt,value
2018-04-14T00:01:30.239Z,9.13
2018-04-14T00:03:59.363Z,8.10
2018-04-14T00:06:29.847Z,7.15
2018-04-14T00:08:59.508Z,5.55
2018-04-14T00:11:29.167Z,6.26
2018-04-14T00:13:58.308Z,7.30
2018-04-14T00:16:27.982Z,5.85
2018-04-14T00:18:57.659Z,5.18
2018-04-14T00:21:27.307Z,5.30
2018-04-14T00:23:56.431Z,4.77
2018-04-14T00:26:26.099Z,4.90
2018-04-14T00:28:56.690Z,4.87
2018-04-14T00:31:26.342Z,6.37
2018-04-14T00:33:56.023Z,6.47
2018-04-14T00:36:25.691Z,4.62
2018-04-14T00:38:54.823Z,4.70
2018-04-14T00:41:24.703Z,4.37
2018-04-14T00:43:54.594Z,3.53
2018-04-14T00:46:25.023Z,4.18
2018-04-14T00:48:54.154Z,4.67
2018-04-14T00:51:23.259Z,4.70
2018-04-14T00:53:52.916Z,4.40
2018-04-14T00:56:22.387Z,5.50
2018-04-14T00:58:52.114Z,5.55
2018-04-14T01:01:21.831Z,4.53
2018-04-14T01:03:51.496Z,5.30
2018-04-14T01:06:21.366Z,8.50
2018-04-14T01:08:50.487Z,8.75
2018-04-14T01:11:19.806Z,7.20
2018-04-14T01:13:49.484Z,6.68
2018-04-14T01:16:19.911Z,6.75
2018-04-14T01:18:50.360Z,6.00
2018-04-14T01:21:20.019Z,6.07
2018-04-14T01:23:49.691Z,6.00
2018-04-14T01:26:19.348Z,5.55
2018-04-14T01:28:49.035Z,6.30
2018-04-14T01:31:18.691Z,6.00
2018-04-14T01:33:48.487Z,6.35
2018-04-14T01:36:17.610Z,6.60
2018-04-14T01:38:47.273Z,6.47
2018-04-14T01:41:16.716Z,5.97
2018-04-14T01:43:46.387Z,5.70
2018-04-14T01:46:16.063Z,5.28
2018-04-14T01:48:45.732Z,6.45
2018-04-14T01:51:15.831Z,7.00
2018-04-14T01:53:44.949Z,7.27
2018-04-14T01:56:14.078Z,7.03
2018-04-14T01:58:43.950Z,7.37
2018-04-14T02:01:14.397Z,6.75
2018-04-14T02:03:44.078Z,7.68
2018-04-14T02:06:14.523Z,7.97
2018-04-14T02:08:44.182Z,7.93
2018-04-14T02:11:13.635Z,7.68
2018-04-14T02:13:42.744Z,7.83
2018-04-14T02:16:12.423Z,7.50
2018-04-14T02:18:42.844Z,8.20
2018-04-14T02:21:13.286Z,7.72
2018-04-14T02:23:45.357Z,8.40
2018-04-14T02:26:15.735Z,8.80
2018-04-14T02:28:44.839Z,9.43
2018-04-14T02:31:17.009Z,10.93
2018-04-14T02:33:46.121Z,9.13
2018-04-14T02:36:15.252Z,8.93
2018-04-14T02:38:45.145Z,10.30
2018-04-14T02:41:14.279Z,12.57
2018-04-14T02:43:44.160Z,13.17
2018-04-14T02:46:13.867Z,13.77
2018-04-14T02:48:42.983Z,13.80
2018-04-14T02:51:12.879Z,15.67
2018-04-14T02:53:42.682Z,16.42
2018-04-14T02:56:12.613Z,14.10
2018-04-14T02:58:41.735Z,15.97
2018-04-14T03:01:10.876Z,15.97
2018-04-14T03:03:40.975Z,16.70
2018-04-14T03:06:10.800Z,15.82
2018-04-14T03:08:40.680Z,17.73
2018-04-14T03:11:09.811Z,16.40
2018-04-14T03:13:39.690Z,17.43
2018-04-14T03:16:08.823Z,16.57
2018-04-14T03:18:37.943Z,16.93
2018-04-14T03:21:07.655Z,17.58
2018-04-14T03:23:36.978Z,18.70
2018-04-14T03:26:06.880Z,17.73
2018-04-14T03:28:36.220Z,19.70
2018-04-14T03:31:05.347Z,17.30
2018-04-14T03:33:34.463Z,17.70
2018-04-14T03:36:03.599Z,17.30
2018-04-14T03:38:32.917Z,20.07
2018-04-14T03:41:03.390Z,17.15
2018-04-14T03:43:33.266Z,17.70
2018-04-14T03:46:02.983Z,17.77
2018-04-14T03:48:32.094Z,18.07
2018-04-14T03:51:01.227Z,16.10
2018-04-14T03:53:30.347Z,19.63
2018-04-14T03:55:59.483Z,18.23
2018-04-14T03:58:28.598Z,19.30
2018-04-14T04:00:58.501Z,19.67
2018-04-14T04:03:27.612Z,18.30
2018-04-14T04:05:57.332Z,18.58
2018-04-14T04:08:27.233Z,19.07
2018-04-14T04:10:56.807Z,19.20
2018-04-14T04:13:25.915Z,17.47
2018-04-14T04:15:55.051Z,17.83
2018-04-14T04:18:35.459Z,18.50
2018-04-14T04:21:15.939Z,18.53
2018-04-14T04:23:56.487Z,19.70
2018-04-14T04:26:25.623Z,18.40
2018-04-14T04:28:54.989Z,19.07
2018-04-14T04:31:24.124Z,18.13
2018-04-14T04:33:53.259Z,18.90
2018-04-14T04:36:23.739Z,21.92
2018-04-14T04:38:53.640Z,19.67
2018-04-14T04:41:23.535Z,19.60
2018-04-14T04:43:52.651Z,16.73
2018-04-14T04:46:22.551Z,17.77
2018-04-14T04:48:52.281Z,14.27
2018-04-14T04:51:21.588Z,14.07
2018-04-14T04:53:51.463Z,16.63
2018-04-14T04:56:20.591Z,17.47
2018-04-14T04:58:50.471Z,16.30
2018-04-14T05:01:19.604Z,16.93
2018-04-14T05:03:49.485Z,19.50
2018-04-14T05:06:18.616Z,18.17
2018-04-14T05:08:48.499Z,16.30
2018-04-14T05:11:17.632Z,15.97
2018-04-14T05:13:46.755Z,14.77
2018-04-14T05:16:15.878Z,15.63
2018-04-14T05:18:44.996Z,14.27
2018-04-14T05:21:14.131Z,13.37
2018-04-14T05:23:43.243Z,15.03
2018-04-14T05:26:12.394Z,14.00
2018-04-14T05:28:42.112Z,12.93
2018-04-14T05:31:11.990Z,13.53
2018-04-14T05:33:41.127Z,12.17
2018-04-14T05:36:10.239Z,13.87
2018-04-14T05:38:39.385Z,14.00
2018-04-14T05:41:08.491Z,14.77
2018-04-14T05:43:38.398Z,14.33
2018-04-14T05:46:07.508Z,14.90
2018-04-14T05:48:37.407Z,13.90
2018-04-14T05:51:06.520Z,14.63
2018-04-14T05:53:36.418Z,13.97
2018-04-14T05:56:05.539Z,13.17
2018-04-14T05:58:35.257Z,14.45
2018-04-14T06:01:04.939Z,12.82
2018-04-14T06:03:34.839Z,12.53
2018-04-14T06:06:03.950Z,12.07
2018-04-14T06:08:33.647Z,10.30
2018-04-14T06:11:02.751Z,9.47
2018-04-14T06:13:32.430Z,8.93
2018-04-14T06:16:02.855Z,8.88
2018-04-14T06:18:33.067Z,9.00
2018-04-14T06:21:03.490Z,8.00
2018-04-14T06:23:33.187Z,9.30
2018-04-14T06:26:02.846Z,7.97
2018-04-14T06:28:32.534Z,8.65
2018-04-14T06:31:03.158Z,8.85
2018-04-14T06:33:34.077Z,10.50
2018-04-14T06:36:05.891Z,9.55
2018-04-14T06:38:35.572Z,8.82
2018-04-14T06:41:06.005Z,8.55
2018-04-14T06:43:35.692Z,8.20
2018-04-14T06:46:06.123Z,7.32
2018-04-14T06:48:36.618Z,7.82
2018-04-14T06:51:06.266Z,7.85
2018-04-14T06:53:35.954Z,7.30
2018-04-14T06:56:06.563Z,8.60
2018-04-14T06:58:36.256Z,8.15
2018-04-14T07:01:05.919Z,8.20
2018-04-14T07:03:35.623Z,7.70
2018-04-14T07:06:06.056Z,8.07
2018-04-14T07:08:36.502Z,7.47
2018-04-14T07:11:05.839Z,6.82
2018-04-14T07:13:35.288Z,6.75
2018-04-14T07:16:05.743Z,7.35
2018-04-14T07:18:35.427Z,7.05
2018-04-14T07:21:05.190Z,7.18
2018-04-14T07:23:34.875Z,7.75
2018-04-14T07:26:04.544Z,8.10
2018-04-14T07:28:34.998Z,7.45
2018-04-14T07:31:04.670Z,6.95
2018-04-14T07:33:34.348Z,8.00
2018-04-14T07:36:04.015Z,7.53
2018-04-14T07:38:33.707Z,7.32
2018-04-14T07:41:04.145Z,7.72
2018-04-14T07:43:34.583Z,7.45
2018-04-14T07:46:04.248Z,7.90
2018-04-14T07:48:33.927Z,7.80
2018-04-14T07:51:03.595Z,8.02
2018-04-14T07:53:33.287Z,7.57
2018-04-14T07:56:02.963Z,7.40
2018-04-14T07:58:32.654Z,6.40
2018-04-14T08:01:02.075Z,5.82
2018-04-14T08:03:32.299Z,5.60
2018-04-14T08:06:01.971Z,5.10
2018-04-14T08:08:31.639Z,6.03
2018-04-14T08:11:01.308Z,6.55
2018-04-14T08:13:31.009Z,6.30
2018-04-14T08:16:00.685Z,6.37
2018-04-14T08:18:31.143Z,4.85
2018-04-14T08:21:00.812Z,5.35
2018-04-14T08:23:31.275Z,4.25
2018-04-14T08:26:00.982Z,3.58
2018-04-14T08:28:31.463Z,4.40
2018-04-14T08:31:00.909Z,3.10
2018-04-14T08:33:30.599Z,3.60
2018-04-14T08:36:00.275Z,2.72
2018-04-14T08:38:29.993Z,2.30
2018-04-14T08:40:59.854Z,1.92
2018-04-14T08:43:29.547Z,1.60
2018-04-14T08:45:59.219Z,1.40
2018-04-14T08:48:28.919Z,1.50
2018-04-14T08:50:58.363Z,1.65
2018-04-14T08:53:28.051Z,1.80
2018-04-14T08:55:58.489Z,2.35
2018-04-14T08:58:28.942Z,2.25
2018-04-14T09:00:58.615Z,1.90
2018-04-14T09:03:29.071Z,1.87
2018-04-14T09:05:58.756Z,1.67
2018-04-14T09:08:29.231Z,1.67
2018-04-14T09:10:58.911Z,2.55
2018-04-14T09:13:28.606Z,2.75
2018-04-14T09:15:59.058Z,2.58
2018-04-14T09:18:28.928Z,2.53
2018-04-14T09:20:58.639Z,2.80
2018-04-14T09:23:28.310Z,2.35
2018-04-14T09:25:58.003Z,2.58
2018-04-14T09:28:27.689Z,5.85
2018-04-14T09:30:58.143Z,2.30
2018-04-14T09:33:27.824Z,1.70
2018-04-14T09:35:58.279Z,1.30
2018-04-14T09:38:27.960Z,1.30
2018-04-14T09:40:57.651Z,1.17
2018-04-14T09:43:28.099Z,1.00
2018-04-14T09:45:57.786Z,1.30
2018-04-14T09:48:28.223Z,1.70
2018-04-14T09:50:58.687Z,2.65
2018-04-14T09:53:28.395Z,2.62
2018-04-14T09:55:58.083Z,1.37
2018-04-14T09:58:27.750Z,1.50
2018-04-14T10:01:02.107Z,1.20
2018-04-14T10:03:31.779Z,3.28
2018-04-14T10:06:01.462Z,0.90
2018-04-14T10:08:31.118Z,0.80
2018-04-14T10:11:01.567Z,1.15
2018-04-14T10:13:31.244Z,1.23
2018-04-14T10:16:01.706Z,1.17
2018-04-14T10:18:31.370Z,0.88
2018-04-14T10:21:01.058Z,2.60
2018-04-14T10:23:30.736Z,1.35
2018-04-14T10:26:00.426Z,1.37
2018-04-14T10:28:30.094Z,1.23
2018-04-14T10:30:59.559Z,0.98
2018-04-14T10:33:29.222Z,2.05
2018-04-14T10:35:59.679Z,1.12
2018-04-14T10:38:29.360Z,0.80
2018-04-14T10:40:59.046Z,1.20
2018-04-14T10:43:28.727Z,1.33
2018-04-14T10:45:58.475Z,0.90
2018-04-14T10:48:28.151Z,2.83
2018-04-14T10:50:57.835Z,1.02
2018-04-14T10:53:27.506Z,1.80
2018-04-14T10:55:57.194Z,1.20
2018-04-14T10:58:26.863Z,1.40
2018-04-14T11:00:56.555Z,1.20
2018-04-14T11:03:26.991Z,1.20
2018-04-14T11:05:56.744Z,1.50
2018-04-14T11:08:26.402Z,1.20
2018-04-14T11:10:56.863Z,1.85
2018-04-14T11:13:26.526Z,1.25
2018-04-14T11:15:56.279Z,1.25
2018-04-14T11:18:25.947Z,1.20
2018-04-14T11:20:56.407Z,1.30
2018-04-14T11:23:26.075Z,1.35
2018-04-14T11:25:55.767Z,1.95
2018-04-14T11:28:25.440Z,1.30
2018-04-14T11:30:55.123Z,1.27
2018-04-14T11:33:25.551Z,0.90
2018-04-14T11:35:55.243Z,2.17
2018-04-14T11:38:24.906Z,1.50
2018-04-14T11:40:54.595Z,2.97
2018-04-14T11:43:24.268Z,1.30
2018-04-14T11:45:54.927Z,1.02
2018-04-14T11:48:24.590Z,1.20
2018-04-14T11:50:54.309Z,1.37
2018-04-14T11:53:24.202Z,1.75
2018-04-14T11:55:53.891Z,1.00
2018-04-14T11:58:23.555Z,1.35
2018-04-14T12:00:54.010Z,1.95
2018-04-14T12:03:23.686Z,1.20
2018-04-14T12:05:54.144Z,3.58
2018-04-14T12:08:23.815Z,1.67
2018-04-14T12:10:53.506Z,1.40
2018-04-14T12:13:23.191Z,1.40
2018-04-14T12:15:52.966Z,1.40
2018-04-14T12:18:22.651Z,1.12
2018-04-14T12:20:52.830Z,2.45
2018-04-14T12:23:22.247Z,1.35
2018-04-14T12:25:51.939Z,1.50
2018-04-14T12:28:21.669Z,1.75
2018-04-14T12:30:52.263Z,2.00
2018-04-14T12:33:21.699Z,1.02
2018-04-14T12:35:51.407Z,1.65
2018-04-14T12:38:21.184Z,1.30
2018-04-14T12:40:50.931Z,1.27
2018-04-14T12:43:20.638Z,3.25
2018-04-14T12:45:50.306Z,3.53
2018-04-14T12:48:19.995Z,1.50
2018-04-14T12:50:49.684Z,1.67
2018-04-14T12:53:20.232Z,1.20
2018-04-14T12:55:50.670Z,1.30
2018-04-14T12:58:20.368Z,1.30
2018-04-14T13:00:50.803Z,1.05
2018-04-14T13:03:21.251Z,1.40
2018-04-14T13:05:51.011Z,1.40
2018-04-14T13:08:20.708Z,1.10
2018-04-14T13:10:50.384Z,1.27
2018-04-14T13:13:20.072Z,1.42
2018-04-14T13:15:49.738Z,1.37
2018-04-14T13:18:19.492Z,1.12
2018-04-14T13:20:49.199Z,1.23
2018-04-14T13:23:18.891Z,1.23
2018-04-14T13:25:49.338Z,2.75
2018-04-14T13:28:19.022Z,1.00
2018-04-14T13:30:49.459Z,1.40
2018-04-14T13:33:20.243Z,1.10
2018-04-14T13:35:49.927Z,1.20
2018-04-14T13:38:19.627Z,3.47
2018-04-14T13:40:49.303Z,4.35
2018-04-14T13:43:18.986Z,1.42
2018-04-14T13:45:48.663Z,3.45
2018-04-14T13:48:18.351Z,1.40
2018-04-14T13:50:48.810Z,1.58
2018-04-14T13:53:18.511Z,1.45
2018-04-14T13:55:48.183Z,2.50
2018-04-14T13:58:18.648Z,1.25
2018-04-14T14:00:48.003Z,4.07
2018-04-14T14:03:17.709Z,2.25
2018-04-14T14:05:47.376Z,1.30
2018-04-14T14:08:17.102Z,2.12
2018-04-14T14:10:46.758Z,1.30
2018-04-14T14:13:17.222Z,1.70
2018-04-14T14:15:46.899Z,1.50
2018-04-14T14:18:17.363Z,2.22
2018-04-14T14:20:47.811Z,1.73
2018-04-14T14:23:17.506Z,1.77
2018-04-14T14:25:47.183Z,1.40
2018-04-14T14:28:16.871Z,1.40
2018-04-14T14:30:47.408Z,1.20
2018-04-14T14:33:17.875Z,2.00
2018-04-14T14:35:47.555Z,2.40
2018-04-14T14:38:17.250Z,1.42
2018-04-14T14:40:47.679Z,1.23
2018-04-14T14:43:17.384Z,1.85
2018-04-14T14:45:47.823Z,1.62
2018-04-14T14:48:17.519Z,1.67
2018-04-14T14:50:47.947Z,1.65
2018-04-14T14:53:18.582Z,1.25
2018-04-14T14:55:49.027Z,1.65
2018-04-14T14:58:18.775Z,2.40
2018-04-14T15:00:49.242Z,2.45
2018-04-14T15:03:19.795Z,2.12
2018-04-14T15:05:49.510Z,1.42
2018-04-14T15:08:19.243Z,1.50
2018-04-14T15:10:48.934Z,1.87
2018-04-14T15:13:18.667Z,6.15
2018-04-14T15:15:48.335Z,4.28
2018-04-14T15:18:18.879Z,2.00
2018-04-14T15:20:48.300Z,1.70
2018-04-14T15:23:18.022Z,1.60
2018-04-14T15:25:47.711Z,2.17
2018-04-14T15:28:17.477Z,1.90
2018-04-14T15:30:47.155Z,1.75
2018-04-14T15:33:17.045Z,1.83
2018-04-14T15:35:46.735Z,1.80
2018-04-14T15:38:16.426Z,1.73
2018-04-14T15:40:46.856Z,1.98
2018-04-14T15:43:16.552Z,1.45
2018-04-14T15:45:46.987Z,2.10
2018-04-14T15:48:16.678Z,2.70
2018-04-14T15:50:47.123Z,5.18
2018-04-14T15:53:16.824Z,2.45
2018-04-14T15:55:46.511Z,1.90
2018-04-14T15:58:17.386Z,3.72
2018-04-14T16:00:48.018Z,3.55
2018-04-14T16:03:17.695Z,2.33
2018-04-14T16:05:48.159Z,2.35
2018-04-14T16:08:17.859Z,2.00
2018-04-14T16:10:47.579Z,2.22
2018-04-14T16:13:18.023Z,2.10
2018-04-14T16:15:47.375Z,3.12
2018-04-14T16:18:17.056Z,2.65
2018-04-14T16:20:46.747Z,2.72
2018-04-14T16:23:16.426Z,4.82
2018-04-14T16:25:46.123Z,3.83
2018-04-14T16:28:15.810Z,3.22
2018-04-14T16:30:45.512Z,4.03
2018-04-14T16:33:15.198Z,4.62
2018-04-14T16:35:44.883Z,2.87
2018-04-14T16:38:14.555Z,3.00
2018-04-14T16:40:45.975Z,2.72
2018-04-14T16:43:15.647Z,2.20
2018-04-14T16:45:45.363Z,2.65
2018-04-14T16:48:15.043Z,2.92
2018-04-14T16:50:45.500Z,3.85
2018-04-14T16:53:15.179Z,2.85
2018-04-14T16:55:45.639Z,2.12
2018-04-14T16:58:16.257Z,1.67
2018-04-14T17:00:46.139Z,3.35
2018-04-14T17:03:16.588Z,1.77
2018-04-14T17:05:46.277Z,1.52
2018-04-14T17:08:16.719Z,1.15
2018-04-14T17:10:46.411Z,1.52
2018-04-14T17:13:16.632Z,2.25
2018-04-14T17:15:46.330Z,2.28
2018-04-14T17:18:15.999Z,1.55
2018-04-14T17:20:45.687Z,1.77
2018-04-14T17:23:15.378Z,1.50
2018-04-14T17:25:45.839Z,1.20
2018-04-14T17:28:15.503Z,1.23
2018-04-14T17:30:46.019Z,1.60
2018-04-14T17:33:16.235Z,2.62
2018-04-14T17:35:45.927Z,2.50
2018-04-14T17:38:15.599Z,2.35
2018-04-14T17:40:45.291Z,5.20
2018-04-14T17:43:15.751Z,7.62
2018-04-14T17:45:45.470Z,3.22
2018-04-14T17:48:15.156Z,2.90
2018-04-14T17:50:44.899Z,5.78
2018-04-14T17:53:15.680Z,3.40
2018-04-14T17:55:46.145Z,3.35
2018-04-14T17:58:15.807Z,5.90
2018-04-14T18:00:46.039Z,5.15
2018-04-14T18:03:16.249Z,3.50
2018-04-14T18:05:46.704Z,3.67
2018-04-14T18:08:16.396Z,3.17
2018-04-14T18:10:46.855Z,3.53
2018-04-14T18:13:16.527Z,3.70
2018-04-14T18:15:46.986Z,3.85
2018-04-14T18:18:16.665Z,5.05
2018-04-14T18:20:47.123Z,4.30
2018-04-14T18:23:16.802Z,4.80
2018-04-14T18:25:46.538Z,4.55
2018-04-14T18:28:16.246Z,4.25
2018-04-14T18:30:45.935Z,3.17
2018-04-14T18:33:15.615Z,3.53
2018-04-14T18:35:45.303Z,3.30
2018-04-14T18:38:14.970Z,3.60
2018-04-14T18:40:44.663Z,3.53
2018-04-14T18:43:15.103Z,3.10
2018-04-14T18:45:44.803Z,3.33
2018-04-14T18:48:15.236Z,3.00
2018-04-14T18:50:44.927Z,3.60
2018-04-14T18:53:15.371Z,4.25
2018-04-14T18:55:45.063Z,4.40
2018-04-14T18:58:15.508Z,4.43
2018-04-14T19:00:45.195Z,4.15
2018-04-14T19:03:15.711Z,3.97
2018-04-14T19:05:45.395Z,7.20
2018-04-14T19:08:15.051Z,5.43
2018-04-14T19:10:45.498Z,7.62
2018-04-14T19:13:15.399Z,4.12
2018-04-14T19:15:45.094Z,4.45
2018-04-14T19:18:14.755Z,5.87
2018-04-14T19:20:44.451Z,5.70
2018-04-14T19:23:14.116Z,5.75
2018-04-14T19:25:44.591Z,4.50
2018-04-14T19:28:14.267Z,3.10
2018-04-14T19:30:45.495Z,3.90
2018-04-14T19:33:15.443Z,7.68
2018-04-14T19:35:44.826Z,4.10
2018-04-14T19:38:15.271Z,7.70
2018-04-14T19:40:44.950Z,3.87
2018-04-14T19:43:14.448Z,4.95
2018-04-14T19:45:44.286Z,6.10
2018-04-14T19:48:14.737Z,6.20
2018-04-14T19:50:44.410Z,6.75
2018-04-14T19:53:14.106Z,8.13
2018-04-14T19:55:44.551Z,5.43
2018-04-14T19:58:15.013Z,4.12
2018-04-14T20:00:44.687Z,4.12
2018-04-14T20:03:15.303Z,3.90
2018-04-14T20:05:45.885Z,3.60
2018-04-14T20:08:15.753Z,3.40
2018-04-14T20:10:46.255Z,3.97
2018-04-14T20:13:16.006Z,4.28
2018-04-14T20:15:45.846Z,3.60
2018-04-14T20:18:15.544Z,3.58
2018-04-14T20:20:45.296Z,4.07
2018-04-14T20:23:15.171Z,3.33
2018-04-14T20:25:44.846Z,4.35
2018-04-14T20:28:15.483Z,4.12
2018-04-14T20:30:45.947Z,3.62
2018-04-14T20:33:15.647Z,3.37
2018-04-14T20:35:45.328Z,3.42
2018-04-14T20:38:15.818Z,4.35
2018-04-14T20:40:46.305Z,3.80
2018-04-14T20:43:15.995Z,3.97
2018-04-14T20:45:45.680Z,3.72
2018-04-14T20:48:16.180Z,4.15
2018-04-14T20:50:45.847Z,4.37
2018-04-14T20:53:15.539Z,4.05
2018-04-14T20:55:45.746Z,4.75
2018-04-14T20:58:15.456Z,4.97
2018-04-14T21:00:46.110Z,4.72
2018-04-14T21:03:16.571Z,4.70
2018-04-14T21:05:46.225Z,5.10
2018-04-14T21:08:15.914Z,5.30
2018-04-14T21:10:45.566Z,6.37
2018-04-14T21:13:16.011Z,5.47
2018-04-14T21:15:45.676Z,5.55
2018-04-14T21:18:16.147Z,5.78
2018-04-14T21:20:45.814Z,5.43
2018-04-14T21:23:16.287Z,5.50
2018-04-14T21:25:45.942Z,5.18
2018-04-14T21:28:15.395Z,5.00
2018-04-14T21:30:45.071Z,4.85
2018-04-14T21:33:14.755Z,6.25
2018-04-14T21:35:44.566Z,5.05
2018-04-14T21:38:15.043Z,4.55
2018-04-14T21:40:44.816Z,5.07
2018-04-14T21:43:14.492Z,5.07
2018-04-14T21:45:44.147Z,5.20
2018-04-14T21:48:14.190Z,5.07
2018-04-14T21:50:43.747Z,5.47
2018-04-14T21:53:13.200Z,5.97
2018-04-14T21:55:42.880Z,6.15
2018-04-14T21:58:12.567Z,5.87
2018-04-14T22:00:42.239Z,6.22
2018-04-14T22:03:11.932Z,6.25
2018-04-14T22:05:41.627Z,6.57
2018-04-14T22:08:18.487Z,5.85
2018-04-14T22:10:48.571Z,5.68
2018-04-14T22:13:18.256Z,5.68
2018-04-14T22:15:47.971Z,5.68
2018-04-14T22:18:17.649Z,6.00
2018-04-14T22:20:48.067Z,5.68
2018-04-14T22:23:17.747Z,5.70
2018-04-14T22:25:47.415Z,9.20
2018-04-14T22:28:17.105Z,6.00
2018-04-14T22:30:47.527Z,5.30
2018-04-14T22:33:17.971Z,6.30
2018-04-14T22:35:47.630Z,5.80
2018-04-14T22:38:17.575Z,6.28
2018-04-14T22:40:47.267Z,6.93
2018-04-14T22:43:16.962Z,7.30
2018-04-14T22:45:46.640Z,6.10
2018-04-14T22:48:16.423Z,6.45
2018-04-14T22:50:46.986Z,6.40
2018-04-14T22:53:16.919Z,6.75
2018-04-14T22:55:46.711Z,6.85
2018-04-14T22:58:16.406Z,6.00
2018-04-14T23:00:45.750Z,6.32
2018-04-14T23:03:15.436Z,6.60
2018-04-14T23:05:45.126Z,6.57
2018-04-14T23:08:14.807Z,6.87
2018-04-14T23:10:45.253Z,7.18
2018-04-14T23:13:14.994Z,6.85
2018-04-14T23:15:44.659Z,6.78
2018-04-14T23:18:15.107Z,6.43
2018-04-14T23:20:44.787Z,5.72
2018-04-14T23:23:15.234Z,6.43
2018-04-14T23:25:44.903Z,6.37
2018-04-14T23:28:14.599Z,6.37
2018-04-14T23:30:44.260Z,6.43
2018-04-14T23:33:13.963Z,6.72
2018-04-14T23:35:43.623Z,6.25
2018-04-14T23:38:14.079Z,6.85
2018-04-14T23:40:44.527Z,6.62
2018-04-14T23:43:14.228Z,7.00
2018-04-14T23:45:44.667Z,6.82
2018-04-14T23:48:14.327Z,6.78
2018-04-14T23:50:44.015Z,7.07
2018-04-14T23:53:13.691Z,7.20
2018-04-14T23:55:43.378Z,7.18
2018-04-14T23:58:13.938Z,7.32
